LOG64AN EGPF-EGPO

Flight info

Callsign LOG64AN
Flight time 0h 37m
Altitude 22000
Route LOMON DCT STN
Aircraft E145/M-SABDFGRW/S

Departure

Time 2026-04-16 21:52
Airport Glasgow Airport (EGPF)

Arrival

Time 2026-04-16 22:29
Airport Stornoway Airport (EGPO)
Time Latitude Longitude Altitude Speed Heading
2026-04-16 21:35 55.86545 -4.42992 20 ft 0 kts 253°
2026-04-16 21:47 55.86545 -4.42993 20 ft 0 kts 262°
2026-04-16 21:47 55.86545 -4.42994 20 ft 0 kts 268°
2026-04-16 21:47 55.86549 -4.42999 20 ft 1 kts 343°
2026-04-16 21:47 55.86569 -4.42959 20 ft 8 kts 52°
2026-04-16 21:48 55.86637 -4.42911 20 ft 12 kts 348°
2026-04-16 21:48 55.86732 -4.42959 20 ft 15 kts 344°
2026-04-16 21:48 55.86850 -4.42975 17 ft 19 kts 24°
2026-04-16 21:48 55.86978 -4.42862 17 ft 21 kts 25°
2026-04-16 21:49 55.87127 -4.42760 17 ft 23 kts 20°
2026-04-16 21:49 55.87273 -4.42661 16 ft 20 kts 20°
2026-04-16 21:49 55.87397 -4.42564 17 ft 20 kts 38°
2026-04-16 21:49 55.87501 -4.42373 16 ft 22 kts 45°
2026-04-16 21:50 55.87615 -4.42160 14 ft 25 kts 47°
2026-04-16 21:50 55.87731 -4.41944 13 ft 16 kts 46°
2026-04-16 21:50 55.87846 -4.41849 10 ft 20 kts 356°
2026-04-16 21:50 55.87923 -4.41955 11 ft 12 kts 248°
2026-04-16 21:51 55.87895 -4.42016 12 ft 0 kts 226°
2026-04-16 21:51 55.87885 -4.42034 12 ft 0 kts 227°
2026-04-16 21:51 55.87722 -4.42339 15 ft 72 kts 226°
2026-04-16 21:51 55.87217 -4.43288 14 ft 134 kts 225°
2026-04-16 21:52 55.86530 -4.44585 406 ft 144 kts 224°
2026-04-16 21:52 55.85870 -4.45986 992 ft 154 kts 229°
2026-04-16 21:52 55.85156 -4.47472 1629 ft 164 kts 222°
2026-04-16 21:52 55.84341 -4.48983 2251 ft 176 kts 221°
2026-04-16 21:53 55.83471 -4.50525 2792 ft 177 kts 220°
2026-04-16 21:53 55.82599 -4.52043 3282 ft 174 kts 220°
2026-04-16 21:53 55.81708 -4.53578 3545 ft 183 kts 220°
2026-04-16 21:53 55.80810 -4.55292 3814 ft 193 kts 230°
2026-04-16 21:54 55.80190 -4.57492 4080 ft 206 kts 247°
2026-04-16 21:54 55.79998 -4.60100 4343 ft 220 kts 266°
2026-04-16 21:54 55.80358 -4.62841 4607 ft 234 kts 287°
2026-04-16 21:54 55.81315 -4.65268 4867 ft 249 kts 310°
2026-04-16 21:55 55.82812 -4.66900 5125 ft 261 kts 337°
2026-04-16 21:55 55.84634 -4.67668 5325 ft 276 kts 354°
2026-04-16 21:55 55.86572 -4.67316 5649 ft 285 kts 11°
2026-04-16 21:55 55.88549 -4.66484 5969 ft 293 kts 14°
2026-04-16 21:56 55.90549 -4.65549 6060 ft 304 kts 14°
2026-04-16 21:56 55.92571 -4.64585 6578 ft 293 kts 14°
2026-04-16 21:56 55.94552 -4.63635 7229 ft 294 kts 14°
2026-04-16 21:56 55.96534 -4.62683 7875 ft 297 kts 14°
2026-04-16 21:57 55.98539 -4.61720 8516 ft 299 kts 14°
2026-04-16 21:57 56.00550 -4.60753 9158 ft 300 kts 14°
2026-04-16 21:57 56.02560 -4.59785 9795 ft 301 kts 14°
2026-04-16 21:57 56.04604 -4.58800 10433 ft 307 kts 13°
2026-04-16 21:58 56.06771 -4.58492 10918 ft 321 kts 348°
2026-04-16 21:58 56.08905 -4.59784 11418 ft 332 kts 332°
2026-04-16 21:58 56.11078 -4.61371 12005 ft 344 kts 335°
2026-04-16 21:58 56.13342 -4.62974 12644 ft 352 kts 335°
2026-04-16 21:59 56.15664 -4.64613 13302 ft 359 kts 335°
2026-04-16 21:59 56.18005 -4.66268 13950 ft 364 kts 335°
2026-04-16 21:59 56.20373 -4.67941 14604 ft 368 kts 335°
2026-04-16 21:59 56.22768 -4.69638 15262 ft 372 kts 335°
2026-04-16 22:00 56.25158 -4.71334 15904 ft 375 kts 335°
2026-04-16 22:00 56.27590 -4.73061 16562 ft 377 kts 335°
2026-04-16 22:00 56.30038 -4.74803 17212 ft 378 kts 335°
2026-04-16 22:00 56.32480 -4.76542 17865 ft 378 kts 334°
2026-04-16 22:01 56.34909 -4.78274 18506 ft 378 kts 334°
2026-04-16 22:01 56.37368 -4.80029 19148 ft 379 kts 334°
2026-04-16 22:01 56.39814 -4.81779 19643 ft 383 kts 334°
2026-04-16 22:01 56.42323 -4.83577 20157 ft 386 kts 334°
2026-04-16 22:02 56.44835 -4.85379 20678 ft 388 kts 334°
2026-04-16 22:02 56.47339 -4.87177 21193 ft 390 kts 334°
2026-04-16 22:02 56.49889 -4.89011 21714 ft 392 kts 334°
2026-04-16 22:02 56.52460 -4.90865 21893 ft 401 kts 334°
2026-04-16 22:03 56.55079 -4.92754 21897 ft 406 kts 334°
2026-04-16 22:03 56.57713 -4.94656 21889 ft 406 kts 334°
2026-04-16 22:03 56.60335 -4.96553 21881 ft 405 kts 334°
2026-04-16 22:03 56.62978 -4.98468 21876 ft 405 kts 334°
2026-04-16 22:04 56.65607 -5.00376 21870 ft 404 kts 334°
2026-04-16 22:04 56.68210 -5.02268 21861 ft 399 kts 334°
2026-04-16 22:04 56.70804 -5.04157 21861 ft 398 kts 334°
2026-04-16 22:04 56.73365 -5.06025 21860 ft 397 kts 334°
2026-04-16 22:05 56.75930 -5.07897 21854 ft 396 kts 335°
2026-04-16 22:05 56.78501 -5.09777 21856 ft 395 kts 334°
2026-04-16 22:05 56.81052 -5.11645 21861 ft 394 kts 334°
2026-04-16 22:05 56.83617 -5.13526 21863 ft 394 kts 334°
2026-04-16 22:06 56.86167 -5.15400 21862 ft 393 kts 334°
2026-04-16 22:06 56.91238 -5.19132 21860 ft 393 kts 334°
2026-04-16 22:06 56.93784 -5.21010 21861 ft 392 kts 334°
2026-04-16 22:07 56.96320 -5.22884 21859 ft 392 kts 334°
2026-04-16 22:07 56.98853 -5.24757 21854 ft 392 kts 334°
2026-04-16 22:07 57.01403 -5.26648 21845 ft 392 kts 334°
2026-04-16 22:07 57.03963 -5.28547 21846 ft 392 kts 334°
2026-04-16 22:08 57.06495 -5.30428 21843 ft 392 kts 334°
2026-04-16 22:08 57.09016 -5.32305 21836 ft 392 kts 334°
2026-04-16 22:08 57.11530 -5.34179 21834 ft 391 kts 334°
2026-04-16 22:08 57.14055 -5.36064 21841 ft 391 kts 334°
2026-04-16 22:09 57.16585 -5.37955 21841 ft 391 kts 334°
2026-04-16 22:09 57.19137 -5.39866 21837 ft 390 kts 334°
2026-04-16 22:09 57.21659 -5.41756 21838 ft 390 kts 334°
2026-04-16 22:09 57.24196 -5.43661 21851 ft 390 kts 334°
2026-04-16 22:10 57.26691 -5.45538 21848 ft 390 kts 333°
2026-04-16 22:10 57.29219 -5.47442 21835 ft 389 kts 334°
2026-04-16 22:10 57.31754 -5.49354 21841 ft 389 kts 334°
2026-04-16 22:10 57.34257 -5.51245 21832 ft 389 kts 334°
2026-04-16 22:11 57.36780 -5.53153 21835 ft 388 kts 334°
2026-04-16 22:11 57.39310 -5.55069 21825 ft 389 kts 334°
2026-04-16 22:11 57.41828 -5.56980 21818 ft 388 kts 334°
2026-04-16 22:11 57.44314 -5.58870 21821 ft 388 kts 334°
2026-04-16 22:12 57.46838 -5.60790 21820 ft 388 kts 333°
2026-04-16 22:12 57.49350 -5.62704 21813 ft 388 kts 334°
2026-04-16 22:12 57.51847 -5.64610 21815 ft 388 kts 334°
2026-04-16 22:12 57.54350 -5.66523 21825 ft 388 kts 333°
2026-04-16 22:13 57.56861 -5.68446 21820 ft 388 kts 333°
2026-04-16 22:13 57.59351 -5.70356 21822 ft 388 kts 333°
2026-04-16 22:13 57.61864 -5.72285 21821 ft 388 kts 333°
2026-04-16 22:13 57.64346 -5.74192 21557 ft 383 kts 333°
2026-04-16 22:14 57.66794 -5.76078 21194 ft 380 kts 333°
2026-04-16 22:14 57.69241 -5.77965 20829 ft 378 kts 333°
2026-04-16 22:14 57.71669 -5.79841 20467 ft 375 kts 333°
2026-04-16 22:14 57.74079 -5.81705 20101 ft 373 kts 333°
2026-04-16 22:15 57.76478 -5.83563 19734 ft 371 kts 333°
2026-04-16 22:15 57.78892 -5.85436 19364 ft 369 kts 333°
2026-04-16 22:15 57.81256 -5.87273 19002 ft 367 kts 333°
2026-04-16 22:15 57.83635 -5.89124 18639 ft 365 kts 333°
2026-04-16 22:16 57.85974 -5.90947 18287 ft 363 kts 333°
2026-04-16 22:16 57.88322 -5.92779 17937 ft 361 kts 333°
2026-04-16 22:16 57.90650 -5.94598 17589 ft 360 kts 333°
2026-04-16 22:16 57.92971 -5.96414 17241 ft 358 kts 333°
2026-04-16 22:17 57.95250 -5.98200 16878 ft 356 kts 333°
2026-04-16 22:17 57.97569 -6.00018 16425 ft 355 kts 333°
2026-04-16 22:17 57.99841 -6.01803 15983 ft 354 kts 333°
2026-04-16 22:17 58.02115 -6.03592 15540 ft 352 kts 333°
2026-04-16 22:18 58.04362 -6.05363 15092 ft 351 kts 333°
2026-04-16 22:18 58.06642 -6.07161 14636 ft 350 kts 333°
2026-04-16 22:18 58.08872 -6.08922 14195 ft 349 kts 333°
2026-04-16 22:18 58.11135 -6.10713 13739 ft 348 kts 333°
2026-04-16 22:19 58.13375 -6.12487 13274 ft 346 kts 333°
2026-04-16 22:19 58.15573 -6.14230 12653 ft 342 kts 333°
2026-04-16 22:19 58.17780 -6.15983 12006 ft 338 kts 333°
2026-04-16 22:19 58.19924 -6.17688 11327 ft 331 kts 333°
2026-04-16 22:20 58.22067 -6.19156 10653 ft 314 kts 338°
2026-04-16 22:20 58.24174 -6.20011 10067 ft 309 kts 348°
2026-04-16 22:20 58.26310 -6.20652 9436 ft 312 kts 348°
2026-04-16 22:20 58.28475 -6.21303 8747 ft 310 kts 348°
2026-04-16 22:21 58.30551 -6.22091 8084 ft 293 kts 334°
2026-04-16 22:21 58.32145 -6.24135 7474 ft 268 kts 303°
2026-04-16 22:21 58.32907 -6.27138 6863 ft 242 kts 272°
2026-04-16 22:21 58.33094 -6.30295 6218 ft 234 kts 268°
2026-04-16 22:22 58.33259 -6.33364 5718 ft 235 kts 268°
2026-04-16 22:22 58.33432 -6.36453 5351 ft 235 kts 268°
2026-04-16 22:22 58.33608 -6.39558 4986 ft 235 kts 268°
2026-04-16 22:22 58.33792 -6.42664 4625 ft 235 kts 268°
2026-04-16 22:23 58.34210 -6.45731 4251 ft 248 kts 292°
2026-04-16 22:23 58.35440 -6.48032 3868 ft 252 kts 330°
2026-04-16 22:23 58.37116 -6.48618 3732 ft 237 kts
2026-04-16 22:23 58.38562 -6.47453 3354 ft 216 kts 48°
2026-04-16 22:24 58.39257 -6.45168 2970 ft 191 kts 91°
2026-04-16 22:24 58.39218 -6.42734 2803 ft 176 kts 112°
2026-04-16 22:24 58.38722 -6.40735 2687 ft 164 kts 129°
2026-04-16 22:24 58.38153 -6.38855 2364 ft 159 kts 129°
2026-04-16 22:25 58.37603 -6.37060 2036 ft 153 kts 129°
2026-04-16 22:25 58.36857 -6.35934 1946 ft 135 kts 170°
2026-04-16 22:25 58.35865 -6.35812 1978 ft 144 kts 175°
2026-04-16 22:25 58.34872 -6.35637 1957 ft 143 kts 174°
2026-04-16 22:26 58.33849 -6.35446 1976 ft 148 kts 174°
2026-04-16 22:26 58.32808 -6.35247 1960 ft 148 kts 174°
2026-04-16 22:26 58.31788 -6.35046 1922 ft 147 kts 174°
2026-04-16 22:26 58.30790 -6.34864 1736 ft 134 kts 174°
2026-04-16 22:27 58.29890 -6.34690 1564 ft 129 kts 173°
2026-04-16 22:27 58.28986 -6.34515 1398 ft 132 kts 174°
2026-04-16 22:27 58.28057 -6.34341 1225 ft 134 kts 174°
2026-04-16 22:27 58.27123 -6.34160 1051 ft 134 kts 174°
2026-04-16 22:28 58.26189 -6.33987 860 ft 133 kts 173°
2026-04-16 22:28 58.25257 -6.33779 608 ft 138 kts 173°
2026-04-16 22:28 58.24286 -6.33601 446 ft 139 kts 174°
2026-04-16 22:28 58.23336 -6.33434 188 ft 133 kts 174°
2026-04-16 22:29 58.22438 -6.33272 40 ft 127 kts 174°
2026-04-16 22:29 58.21615 -6.33121 14 ft 102 kts 174°
2026-04-16 22:29 58.21114 -6.33023 15 ft 44 kts 174°
2026-04-16 22:29 58.20947 -6.33017 16 ft 11 kts 200°
2026-04-16 22:30 58.20943 -6.32988 16 ft 7 kts 359°
2026-04-16 22:30 58.21025 -6.33004 15 ft 16 kts 354°
2026-04-16 22:30 58.21160 -6.33029 15 ft 21 kts 354°
2026-04-16 22:30 58.21318 -6.33058 13 ft 22 kts 354°
2026-04-16 22:31 58.21401 -6.32996 11 ft 14 kts 58°
2026-04-16 22:31 58.21453 -6.32822 14 ft 14 kts 60°
2026-04-16 22:31 58.21507 -6.32648 15 ft 15 kts 60°
2026-04-16 22:31 58.21515 -6.32518 18 ft 9 kts 143°
2026-04-16 22:32 58.21457 -6.32449 19 ft 10 kts 145°
2026-04-16 22:32 58.21458 -6.32335 21 ft 8 kts 80°
2026-04-16 22:32 58.21464 -6.32236 24 ft 6 kts 84°
2026-04-16 22:32 58.21469 -6.32151 26 ft 7 kts 88°
2026-04-16 22:33 58.21435 -6.32119 27 ft 5 kts 224°
2026-04-16 22:33 58.21432 -6.32149 26 ft 0 kts 263°
2026-04-16 22:33 58.21432 -6.32148 26 ft 0 kts 263°